createdAt,value
2019-01-25T00:00:40.875Z,27.02
2019-01-25T00:01:14.389Z,25.45
2019-01-25T00:01:48.016Z,27.17
2019-01-25T00:02:21.566Z,24.77
2019-01-25T00:02:55.200Z,27.05
2019-01-25T00:03:28.859Z,27.48
2019-01-25T00:04:02.360Z,27.30
2019-01-25T00:04:35.813Z,28.00
2019-01-25T00:05:09.712Z,26.82
2019-01-25T00:05:43.213Z,27.10
2019-01-25T00:06:16.716Z,25.80
2019-01-25T00:06:50.403Z,27.22
2019-01-25T00:07:23.937Z,28.17
2019-01-25T00:07:57.792Z,27.20
2019-01-25T00:08:31.454Z,28.77
2019-01-25T00:09:07.181Z,28.40
2019-01-25T00:09:40.852Z,27.30
2019-01-25T00:10:14.437Z,27.45
2019-01-25T00:10:48.062Z,28.15
2019-01-25T00:11:21.802Z,27.05
2019-01-25T00:11:55.302Z,27.32
2019-01-25T00:12:28.873Z,26.40
2019-01-25T00:13:02.373Z,28.00
2019-01-25T00:13:35.992Z,27.13
2019-01-25T00:14:09.470Z,26.37
2019-01-25T00:14:42.981Z,25.75
2019-01-25T00:15:16.645Z,28.40
2019-01-25T00:15:50.149Z,26.62
2019-01-25T00:16:23.711Z,25.57
2019-01-25T00:16:58.328Z,27.32
2019-01-25T00:17:31.974Z,27.45
2019-01-25T00:18:05.569Z,26.48
2019-01-25T00:18:39.233Z,26.87
2019-01-25T00:19:12.876Z,28.02
2019-01-25T00:19:46.381Z,27.80
2019-01-25T00:20:19.879Z,28.32
2019-01-25T00:20:53.395Z,26.95
2019-01-25T00:21:26.919Z,26.30
2019-01-25T00:22:00.518Z,29.37
2019-01-25T00:22:34.021Z,29.40
2019-01-25T00:23:07.646Z,27.55
2019-01-25T00:23:41.300Z,29.32
2019-01-25T00:24:14.917Z,27.80
2019-01-25T00:24:48.559Z,26.90
2019-01-25T00:25:22.072Z,28.42
2019-01-25T00:25:55.786Z,27.55
2019-01-25T00:26:29.516Z,27.82
2019-01-25T00:27:03.086Z,29.85
2019-01-25T00:27:36.561Z,26.87
2019-01-25T00:28:10.100Z,29.77
2019-01-25T00:28:43.739Z,29.87
2019-01-25T00:29:18.134Z,27.50
2019-01-25T00:29:51.665Z,26.97
2019-01-25T00:30:25.232Z,27.90
2019-01-25T00:30:58.698Z,27.52
2019-01-25T00:31:32.894Z,29.00
2019-01-25T00:32:06.641Z,27.85
2019-01-25T00:32:40.326Z,29.72
2019-01-25T00:33:13.881Z,29.18
2019-01-25T00:33:47.390Z,30.27
2019-01-25T00:34:20.953Z,29.85
2019-01-25T00:34:54.721Z,29.40
2019-01-25T00:35:28.213Z,29.37
2019-01-25T00:36:01.836Z,28.85
2019-01-25T00:36:35.406Z,29.42
2019-01-25T00:37:08.933Z,28.00
2019-01-25T00:37:42.408Z,27.67
2019-01-25T00:38:16.105Z,29.32
2019-01-25T00:38:49.752Z,26.65
2019-01-25T00:39:23.269Z,29.20
2019-01-25T00:39:56.936Z,29.10
2019-01-25T00:40:30.441Z,28.47
2019-01-25T00:41:04.704Z,29.60
2019-01-25T00:41:38.297Z,28.07
2019-01-25T00:42:12.139Z,26.25
2019-01-25T00:42:45.704Z,27.55
2019-01-25T00:43:19.497Z,29.15
2019-01-25T00:43:53.010Z,28.42
2019-01-25T00:44:26.513Z,29.67
2019-01-25T00:45:00.073Z,27.42
2019-01-25T00:45:33.727Z,26.45
2019-01-25T00:46:07.288Z,28.80
2019-01-25T00:46:40.985Z,27.82
2019-01-25T00:47:14.537Z,26.75
2019-01-25T00:47:48.024Z,27.80
2019-01-25T00:48:21.514Z,28.05
2019-01-25T00:48:56.548Z,27.17
2019-01-25T00:49:30.741Z,27.90
2019-01-25T00:50:05.961Z,29.05
2019-01-25T00:50:39.534Z,26.85
2019-01-25T00:51:13.433Z,28.75
2019-01-25T00:51:46.912Z,28.80
2019-01-25T00:52:20.437Z,29.30
2019-01-25T00:52:53.924Z,28.50
2019-01-25T00:53:27.621Z,29.27
2019-01-25T00:54:01.218Z,27.98
2019-01-25T00:54:35.024Z,26.62
2019-01-25T00:55:08.849Z,28.32
2019-01-25T00:55:42.482Z,29.72
2019-01-25T00:56:16.036Z,28.85
2019-01-25T00:56:49.672Z,29.00
2019-01-25T00:57:23.249Z,29.70
2019-01-25T00:57:56.889Z,30.50
2019-01-25T00:58:30.441Z,28.25
2019-01-25T00:59:04.723Z,31.07
2019-01-25T00:59:38.275Z,29.37
2019-01-25T01:00:14.112Z,27.85
2019-01-25T01:00:47.897Z,30.70
2019-01-25T01:01:21.482Z,28.30
2019-01-25T01:01:55.085Z,28.77
2019-01-25T01:02:28.988Z,30.57
2019-01-25T01:03:02.662Z,29.77
2019-01-25T01:03:36.192Z,28.50
2019-01-25T01:04:09.687Z,30.97
2019-01-25T01:04:43.326Z,30.52
2019-01-25T01:05:17.732Z,28.02
2019-01-25T01:05:51.251Z,29.18
2019-01-25T01:06:24.808Z,30.80
2019-01-25T01:06:58.365Z,31.73
2019-01-25T01:07:31.810Z,29.90
2019-01-25T01:08:05.425Z,32.55
2019-01-25T01:08:38.939Z,32.20
2019-01-25T01:09:12.852Z,30.75
2019-01-25T01:09:46.404Z,30.10
2019-01-25T01:10:20.596Z,29.87
2019-01-25T01:10:54.092Z,33.40
2019-01-25T01:11:27.851Z,31.15
2019-01-25T01:12:01.592Z,33.00
2019-01-25T01:12:35.259Z,33.92
2019-01-25T01:13:08.751Z,30.90
2019-01-25T01:13:42.640Z,31.40
2019-01-25T01:14:16.273Z,33.23
2019-01-25T01:14:49.836Z,32.53
2019-01-25T01:15:23.573Z,32.35
2019-01-25T01:15:57.225Z,32.05
2019-01-25T01:16:30.846Z,32.60
2019-01-25T01:17:04.347Z,32.30
2019-01-25T01:17:37.889Z,31.95
2019-01-25T01:18:11.374Z,33.88
2019-01-25T01:18:44.921Z,30.37
2019-01-25T01:19:18.446Z,33.08
2019-01-25T01:19:51.950Z,34.18
2019-01-25T01:20:25.457Z,34.75
2019-01-25T01:20:59.096Z,31.77
2019-01-25T01:21:32.622Z,32.15
2019-01-25T01:22:06.120Z,31.90
2019-01-25T01:22:39.975Z,33.60
2019-01-25T01:23:13.490Z,33.18
2019-01-25T01:23:47.085Z,31.93
2019-01-25T01:24:20.620Z,31.55
2019-01-25T01:24:54.189Z,34.20
2019-01-25T01:25:27.700Z,33.20
2019-01-25T01:26:01.325Z,35.17
2019-01-25T01:26:34.847Z,31.73
2019-01-25T01:27:08.355Z,34.48
2019-01-25T01:27:41.835Z,30.88
2019-01-25T01:28:15.537Z,34.92
2019-01-25T01:28:49.026Z,33.58
2019-01-25T01:29:22.580Z,34.35
2019-01-25T01:29:56.086Z,32.05
2019-01-25T01:30:29.644Z,33.30
2019-01-25T01:31:03.209Z,34.03
2019-01-25T01:31:36.725Z,33.92
2019-01-25T01:32:10.229Z,34.18
2019-01-25T01:32:43.882Z,31.62
2019-01-25T01:33:17.468Z,33.92
2019-01-25T01:33:50.973Z,33.88
2019-01-25T01:34:24.496Z,32.73
2019-01-25T01:34:58.015Z,35.00
2019-01-25T01:35:31.528Z,34.67
2019-01-25T01:36:05.246Z,34.20
2019-01-25T01:36:38.690Z,33.83
2019-01-25T01:37:12.193Z,34.30
2019-01-25T01:37:45.715Z,32.58
2019-01-25T01:38:19.223Z,33.18
2019-01-25T01:38:52.815Z,34.43
2019-01-25T01:39:26.333Z,32.42
2019-01-25T01:39:59.814Z,31.75
2019-01-25T01:40:33.516Z,32.20
2019-01-25T01:41:07.068Z,35.25
2019-01-25T01:41:40.568Z,33.78
2019-01-25T01:42:14.293Z,32.45
2019-01-25T01:42:48.069Z,33.13
2019-01-25T01:43:21.677Z,33.65
2019-01-25T01:43:55.380Z,34.15
2019-01-25T01:44:28.905Z,32.50
2019-01-25T01:45:02.418Z,34.80
2019-01-25T01:45:35.904Z,34.38
2019-01-25T01:46:09.388Z,36.70
2019-01-25T01:46:42.984Z,34.78
2019-01-25T01:47:17.435Z,32.28
2019-01-25T01:47:51.278Z,32.15
2019-01-25T01:48:24.805Z,35.35
2019-01-25T01:48:58.350Z,34.10
2019-01-25T01:49:31.870Z,32.75
2019-01-25T01:50:05.939Z,33.42
2019-01-25T01:50:39.437Z,34.67
2019-01-25T01:51:13.229Z,35.17
2019-01-25T01:51:46.737Z,33.65
2019-01-25T01:52:20.248Z,33.20
2019-01-25T01:52:53.685Z,34.25
2019-01-25T01:53:27.191Z,33.55
2019-01-25T01:54:00.707Z,35.43
2019-01-25T01:54:34.363Z,35.40
2019-01-25T01:55:08.337Z,34.50
2019-01-25T01:55:41.815Z,35.03
2019-01-25T01:56:15.356Z,35.13
2019-01-25T01:56:48.921Z,34.13
2019-01-25T01:57:22.428Z,35.08
2019-01-25T01:57:56.117Z,34.75
2019-01-25T01:58:29.708Z,34.98
2019-01-25T01:59:03.238Z,35.33
2019-01-25T01:59:36.717Z,36.28
2019-01-25T02:00:15.076Z,35.83
2019-01-25T02:00:48.693Z,35.55
2019-01-25T02:01:22.645Z,32.85
2019-01-25T02:01:56.249Z,34.90
2019-01-25T02:02:29.906Z,35.28
2019-01-25T02:03:03.670Z,35.80
2019-01-25T02:03:37.225Z,35.88
2019-01-25T02:04:10.784Z,34.73
2019-01-25T02:04:44.306Z,34.00
2019-01-25T02:05:18.141Z,33.25
2019-01-25T02:05:51.784Z,34.30
2019-01-25T02:06:25.366Z,35.75
2019-01-25T02:06:58.922Z,34.08
2019-01-25T02:07:32.469Z,34.25
2019-01-25T02:08:06.108Z,32.78
2019-01-25T02:08:39.751Z,33.08
2019-01-25T02:09:13.320Z,36.70
2019-01-25T02:09:46.797Z,34.15
2019-01-25T02:10:29.826Z,35.45
2019-01-25T02:11:03.505Z,34.30
2019-01-25T02:11:37.167Z,31.95
2019-01-25T02:12:12.196Z,32.13
2019-01-25T02:12:45.779Z,32.33
2019-01-25T02:13:19.292Z,33.05
2019-01-25T02:13:52.893Z,33.58
2019-01-25T02:14:26.553Z,34.45
2019-01-25T02:15:00.042Z,34.65
2019-01-25T02:15:33.656Z,34.78
2019-01-25T02:16:07.241Z,36.00
2019-01-25T02:16:40.946Z,35.80
2019-01-25T02:17:14.551Z,34.85
2019-01-25T02:17:48.794Z,37.15
2019-01-25T02:18:26.681Z,34.55
2019-01-25T02:19:02.140Z,33.02
2019-01-25T02:19:35.648Z,34.25
2019-01-25T02:20:10.474Z,34.00
2019-01-25T02:20:44.030Z,35.15
2019-01-25T02:21:19.089Z,32.83
2019-01-25T02:21:54.072Z,35.90
2019-01-25T02:22:27.659Z,35.75
2019-01-25T02:23:01.214Z,33.80
2019-01-25T02:23:34.769Z,36.08
2019-01-25T02:24:08.253Z,33.25
2019-01-25T02:24:48.967Z,33.15
2019-01-25T02:25:22.622Z,34.67
2019-01-25T02:25:56.112Z,35.28
2019-01-25T02:26:31.156Z,34.85
2019-01-25T02:27:04.779Z,34.53
2019-01-25T02:27:38.332Z,35.35
2019-01-25T02:28:11.848Z,34.58
2019-01-25T02:28:45.610Z,33.35
2019-01-25T02:29:19.243Z,34.92
2019-01-25T02:30:00.919Z,35.90
2019-01-25T02:30:34.410Z,35.38
2019-01-25T02:31:07.997Z,33.20
2019-01-25T02:31:41.557Z,34.85
2019-01-25T02:32:15.041Z,36.80
2019-01-25T02:32:48.713Z,34.63
2019-01-25T02:33:24.207Z,36.30
2019-01-25T02:33:57.768Z,37.80
2019-01-25T02:34:31.257Z,34.98
2019-01-25T02:35:05.239Z,34.85
2019-01-25T02:35:38.883Z,35.40
2019-01-25T02:36:12.490Z,34.20
2019-01-25T02:36:46.190Z,33.53
2019-01-25T02:37:21.597Z,33.42
2019-01-25T02:37:58.007Z,34.00
2019-01-25T02:38:31.672Z,35.58
2019-01-25T02:39:07.464Z,34.08
2019-01-25T02:39:41.040Z,35.78
2019-01-25T02:40:15.996Z,32.15
2019-01-25T02:40:49.598Z,35.30
2019-01-25T02:41:23.089Z,34.43
2019-01-25T02:41:56.660Z,35.88
2019-01-25T02:42:30.885Z,33.85
2019-01-25T02:43:04.692Z,34.10
2019-01-25T02:43:38.190Z,34.10
2019-01-25T02:44:11.893Z,35.00
2019-01-25T02:44:45.591Z,34.03
2019-01-25T02:45:20.224Z,37.17
2019-01-25T02:45:53.765Z,34.70
2019-01-25T02:46:27.248Z,32.93
2019-01-25T02:47:01.272Z,34.88
2019-01-25T02:47:34.862Z,36.35
2019-01-25T02:48:08.680Z,37.13
2019-01-25T02:48:42.249Z,35.48
2019-01-25T02:49:16.165Z,35.38
2019-01-25T02:49:49.682Z,36.70
2019-01-25T02:50:23.227Z,35.35
2019-01-25T02:50:57.249Z,36.15
2019-01-25T02:51:30.796Z,37.90
2019-01-25T02:52:04.563Z,34.50
2019-01-25T02:52:38.179Z,35.45
2019-01-25T02:53:11.772Z,34.27
2019-01-25T02:53:45.348Z,35.73
2019-01-25T02:54:18.843Z,34.90
2019-01-25T02:54:52.343Z,38.33
2019-01-25T02:55:26.562Z,35.40
2019-01-25T02:56:00.306Z,35.92
2019-01-25T02:56:33.785Z,36.28
2019-01-25T02:57:07.293Z,35.48
2019-01-25T02:57:40.916Z,35.33
2019-01-25T02:58:14.402Z,35.83
2019-01-25T02:58:47.830Z,35.40
2019-01-25T02:59:21.517Z,34.85
2019-01-25T02:59:55.005Z,36.48
2019-01-25T03:00:28.841Z,33.80
2019-01-25T03:01:02.356Z,34.38
2019-01-25T03:01:35.829Z,35.23
2019-01-25T03:02:08.899Z,36.20
2019-01-25T03:02:42.557Z,33.58
2019-01-25T03:03:16.040Z,36.35
2019-01-25T03:03:49.567Z,38.85
2019-01-25T03:04:23.213Z,33.60
2019-01-25T03:04:56.708Z,37.93
2019-01-25T03:05:30.202Z,36.03
2019-01-25T03:06:03.680Z,36.55
2019-01-25T03:06:37.207Z,37.53
2019-01-25T03:07:10.732Z,35.45
2019-01-25T03:07:44.280Z,36.45
2019-01-25T03:08:17.934Z,34.48
2019-01-25T03:08:51.417Z,35.05
2019-01-25T03:09:24.887Z,33.83
2019-01-25T03:09:58.373Z,35.65
2019-01-25T03:10:31.862Z,36.75
2019-01-25T03:11:05.449Z,36.65
2019-01-25T03:11:38.933Z,36.08
2019-01-25T03:12:12.438Z,37.53
2019-01-25T03:12:45.954Z,37.33
2019-01-25T03:13:19.450Z,36.50
2019-01-25T03:13:52.929Z,36.77
2019-01-25T03:14:26.434Z,36.13
2019-01-25T03:14:59.909Z,38.02
2019-01-25T03:15:33.572Z,34.67
2019-01-25T03:16:07.138Z,35.90
2019-01-25T03:16:40.626Z,35.13
2019-01-25T03:17:14.460Z,34.53
2019-01-25T03:17:48.372Z,35.33
2019-01-25T03:18:21.925Z,34.70
2019-01-25T03:18:55.769Z,38.42
2019-01-25T03:19:29.477Z,36.85
2019-01-25T03:20:03.070Z,34.73
2019-01-25T03:20:36.791Z,38.13
2019-01-25T03:21:10.341Z,37.63
2019-01-25T03:21:43.824Z,35.55
2019-01-25T03:22:17.301Z,36.75
2019-01-25T03:22:50.806Z,35.85
2019-01-25T03:23:25.082Z,36.80
2019-01-25T03:23:58.654Z,39.05
2019-01-25T03:24:32.135Z,38.00
2019-01-25T03:25:06.274Z,36.88
2019-01-25T03:25:40.031Z,36.10
2019-01-25T03:26:13.629Z,35.98
2019-01-25T03:26:49.007Z,36.28
2019-01-25T03:27:22.707Z,36.68
2019-01-25T03:27:56.245Z,35.43
2019-01-25T03:28:30.347Z,36.35
2019-01-25T03:29:04.127Z,35.52
2019-01-25T03:29:37.622Z,36.60
2019-01-25T03:30:12.331Z,38.38
2019-01-25T03:30:45.874Z,36.33
2019-01-25T03:31:38.473Z,34.98
2019-01-25T03:32:12.297Z,33.95
2019-01-25T03:32:45.842Z,36.15
2019-01-25T03:33:19.993Z,36.68
2019-01-25T03:33:53.517Z,36.00
2019-01-25T03:34:27.429Z,34.58
2019-01-25T03:35:20.045Z,35.38
2019-01-25T03:35:53.613Z,35.38
2019-01-25T03:36:27.097Z,35.45
2019-01-25T03:37:00.590Z,36.00
2019-01-25T03:37:34.087Z,37.98
2019-01-25T03:38:08.415Z,38.20
2019-01-25T03:38:41.934Z,36.75
2019-01-25T03:39:15.493Z,35.55
2019-01-25T03:39:49.466Z,36.28
2019-01-25T03:40:42.120Z,36.77
2019-01-25T03:41:16.090Z,34.48
2019-01-25T03:42:09.051Z,35.52
2019-01-25T03:42:42.568Z,36.08
2019-01-25T03:43:16.326Z,35.75
2019-01-25T03:43:49.851Z,35.15
2019-01-25T03:44:23.388Z,36.25
2019-01-25T03:44:57.839Z,34.43
2019-01-25T03:45:31.325Z,38.60
2019-01-25T03:46:05.114Z,36.05
2019-01-25T03:46:39.233Z,37.33
2019-01-25T03:47:12.733Z,36.38
2019-01-25T03:47:46.321Z,35.73
2019-01-25T03:48:20.404Z,35.20
2019-01-25T03:48:55.622Z,35.30
2019-01-25T03:49:29.930Z,35.95
2019-01-25T03:50:04.628Z,36.40
2019-01-25T03:50:39.373Z,38.28
2019-01-25T03:51:13.586Z,34.83
2019-01-25T03:51:47.852Z,36.15
2019-01-25T03:52:21.397Z,36.17
2019-01-25T03:52:56.106Z,36.90
2019-01-25T03:53:29.682Z,37.85
2019-01-25T03:54:03.385Z,38.20
2019-01-25T03:54:37.614Z,37.65
2019-01-25T03:55:11.706Z,37.93
2019-01-25T03:55:45.527Z,36.48
2019-01-25T03:56:19.002Z,37.85
2019-01-25T03:56:52.603Z,33.95
2019-01-25T03:57:27.685Z,37.03
2019-01-25T03:58:01.362Z,37.58
2019-01-25T03:58:36.023Z,38.17
2019-01-25T03:59:09.877Z,38.63
2019-01-25T03:59:44.752Z,36.05
2019-01-25T04:00:20.216Z,38.05
2019-01-25T04:00:54.627Z,37.42
2019-01-25T04:01:28.398Z,35.65
2019-01-25T04:02:02.421Z,36.05
2019-01-25T04:02:36.372Z,38.73
2019-01-25T04:03:10.188Z,38.73
2019-01-25T04:03:44.741Z,35.78
2019-01-25T04:04:18.524Z,37.60
2019-01-25T04:04:52.510Z,39.58
2019-01-25T04:05:27.215Z,37.73
2019-01-25T04:06:00.969Z,37.95
2019-01-25T04:06:35.464Z,36.85
2019-01-25T04:07:09.026Z,36.77
2019-01-25T04:07:43.952Z,36.55
2019-01-25T04:08:18.409Z,35.90
2019-01-25T04:08:52.948Z,37.63
2019-01-25T04:09:26.509Z,37.13
2019-01-25T04:10:00.588Z,36.45
2019-01-25T04:10:34.381Z,38.35
2019-01-25T04:11:09.876Z,38.13
2019-01-25T04:11:44.077Z,37.05
2019-01-25T04:12:18.320Z,36.28
2019-01-25T04:12:52.251Z,35.92
2019-01-25T04:13:26.536Z,36.95
2019-01-25T04:14:00.447Z,36.77
2019-01-25T04:14:34.252Z,36.33
2019-01-25T04:15:09.710Z,34.73
2019-01-25T04:15:44.124Z,36.25
2019-01-25T04:16:19.027Z,35.60
2019-01-25T04:16:53.707Z,33.98
2019-01-25T04:17:27.641Z,33.38
2019-01-25T04:18:02.772Z,36.88
2019-01-25T04:18:36.841Z,34.53
2019-01-25T04:19:10.753Z,34.43
2019-01-25T04:19:44.254Z,37.05
2019-01-25T04:20:18.096Z,36.88
2019-01-25T04:20:52.111Z,34.55
2019-01-25T04:21:27.885Z,37.60
2019-01-25T04:22:02.622Z,36.05
2019-01-25T04:22:37.456Z,36.15
2019-01-25T04:23:12.254Z,35.75
2019-01-25T04:23:45.772Z,36.08
2019-01-25T04:24:20.923Z,36.00
2019-01-25T04:24:55.466Z,35.40
2019-01-25T04:25:31.084Z,38.28
2019-01-25T04:26:05.698Z,36.42
2019-01-25T04:26:40.782Z,36.25
2019-01-25T04:27:15.460Z,37.08
2019-01-25T04:27:49.056Z,35.70
2019-01-25T04:28:23.148Z,34.85
2019-01-25T04:28:58.509Z,38.05
2019-01-25T04:29:32.930Z,36.08
2019-01-25T04:30:08.102Z,37.53
2019-01-25T04:30:42.252Z,36.33
2019-01-25T04:31:16.857Z,36.70
2019-01-25T04:31:51.064Z,36.60
2019-01-25T04:32:26.393Z,35.85
2019-01-25T04:33:00.880Z,37.25
2019-01-25T04:33:34.681Z,35.52
2019-01-25T04:34:09.568Z,36.80
2019-01-25T04:34:43.947Z,36.28
2019-01-25T04:35:17.765Z,39.03
2019-01-25T04:35:52.323Z,36.50
2019-01-25T04:36:26.213Z,36.17
2019-01-25T04:37:00.447Z,37.55
2019-01-25T04:37:36.054Z,34.63
2019-01-25T04:38:09.616Z,36.03
2019-01-25T04:38:44.443Z,36.73
2019-01-25T04:39:18.134Z,36.58
2019-01-25T04:39:52.865Z,35.65
2019-01-25T04:40:26.804Z,34.30
2019-01-25T04:41:00.310Z,35.65
2019-01-25T04:41:35.905Z,34.80
2019-01-25T04:42:09.439Z,37.05
2019-01-25T04:42:43.759Z,36.10
2019-01-25T04:43:17.285Z,37.38
2019-01-25T04:43:50.789Z,35.80
2019-01-25T04:44:24.914Z,35.92
2019-01-25T04:44:58.453Z,36.40
2019-01-25T04:45:31.992Z,36.88
2019-01-25T04:46:05.637Z,36.88
2019-01-25T04:46:39.167Z,38.17
2019-01-25T04:47:13.115Z,35.65
2019-01-25T04:47:46.971Z,36.77
2019-01-25T04:48:21.135Z,36.03
2019-01-25T04:48:55.212Z,36.35
2019-01-25T04:49:31.508Z,38.08
2019-01-25T04:50:07.205Z,36.68
2019-01-25T04:50:40.745Z,36.08
2019-01-25T04:51:14.373Z,36.95
2019-01-25T04:51:48.465Z,35.90
2019-01-25T04:52:22.613Z,36.35
2019-01-25T04:52:56.913Z,36.48
2019-01-25T04:53:33.092Z,35.95
2019-01-25T04:54:07.329Z,34.13
2019-01-25T04:54:41.575Z,37.08
2019-01-25T04:55:19.077Z,36.58
2019-01-25T04:55:52.576Z,35.08
2019-01-25T04:56:26.796Z,36.85
2019-01-25T04:57:01.554Z,37.80
2019-01-25T04:57:35.176Z,38.20
2019-01-25T04:58:10.088Z,36.90
2019-01-25T04:58:44.011Z,37.03
2019-01-25T04:59:18.078Z,38.10
2019-01-25T04:59:52.915Z,36.33
2019-01-25T05:00:27.052Z,36.30
2019-01-25T05:01:06.206Z,34.80
2019-01-25T05:01:39.940Z,36.30
2019-01-25T05:02:13.436Z,36.23
2019-01-25T05:02:51.869Z,37.17
2019-01-25T05:03:25.661Z,36.38
2019-01-25T05:03:59.448Z,36.80
2019-01-25T05:04:36.096Z,38.17
2019-01-25T05:05:09.658Z,37.42
2019-01-25T05:05:43.320Z,38.60
2019-01-25T05:06:17.620Z,37.30
2019-01-25T05:06:51.406Z,37.75
2019-01-25T05:07:25.449Z,36.38
2019-01-25T05:08:03.247Z,37.17
2019-01-25T05:08:36.818Z,37.48
2019-01-25T05:09:10.482Z,39.13
2019-01-25T05:09:44.040Z,37.30
2019-01-25T05:10:17.536Z,37.30
2019-01-25T05:10:51.474Z,38.13
2019-01-25T05:11:25.038Z,38.98
2019-01-25T05:11:58.531Z,36.85
2019-01-25T05:12:32.069Z,39.10
2019-01-25T05:13:05.776Z,38.20
2019-01-25T05:13:39.326Z,37.38
2019-01-25T05:14:12.954Z,35.15
2019-01-25T05:14:46.482Z,37.95
2019-01-25T05:15:20.060Z,41.00
2019-01-25T05:15:53.585Z,39.98
2019-01-25T05:16:27.096Z,40.28
2019-01-25T05:17:00.617Z,38.00
2019-01-25T05:17:34.182Z,35.65
2019-01-25T05:18:08.093Z,36.65
2019-01-25T05:18:41.593Z,38.73
2019-01-25T05:19:15.089Z,37.42
2019-01-25T05:19:48.645Z,38.80
2019-01-25T05:20:22.327Z,37.55
2019-01-25T05:20:55.832Z,37.55
2019-01-25T05:21:29.429Z,36.90
2019-01-25T05:22:02.935Z,38.58
2019-01-25T05:22:36.503Z,38.55
2019-01-25T05:23:10.274Z,36.35
2019-01-25T05:23:43.779Z,39.40
2019-01-25T05:24:17.328Z,37.85
2019-01-25T05:24:50.882Z,36.90
2019-01-25T05:25:25.033Z,37.78
2019-01-25T05:25:58.455Z,39.18
2019-01-25T05:26:31.993Z,39.38
2019-01-25T05:27:05.640Z,39.60
2019-01-25T05:27:39.219Z,39.55
2019-01-25T05:28:16.553Z,36.70
2019-01-25T05:28:50.062Z,37.33
2019-01-25T05:29:24.456Z,37.93
2019-01-25T05:29:58.022Z,38.28
2019-01-25T05:30:31.529Z,39.30
2019-01-25T05:31:06.026Z,37.60
2019-01-25T05:31:39.514Z,39.10
2019-01-25T05:32:13.000Z,39.98
2019-01-25T05:32:46.520Z,41.73
2019-01-25T05:33:20.037Z,38.00
2019-01-25T05:33:54.358Z,39.33
2019-01-25T05:34:28.006Z,39.08
2019-01-25T05:35:01.559Z,37.67
2019-01-25T05:35:35.442Z,39.80
2019-01-25T05:36:09.077Z,41.23
2019-01-25T05:36:42.621Z,40.65
2019-01-25T05:37:16.116Z,38.42
2019-01-25T05:37:49.868Z,39.88
2019-01-25T05:38:23.433Z,39.10
2019-01-25T05:38:57.092Z,38.28
2019-01-25T05:39:31.015Z,39.20
2019-01-25T05:40:05.327Z,42.25
2019-01-25T05:40:38.844Z,40.88
2019-01-25T05:41:12.334Z,37.10
2019-01-25T05:41:48.941Z,39.35
2019-01-25T05:42:22.548Z,39.50
2019-01-25T05:42:56.057Z,38.50
2019-01-25T05:43:36.917Z,38.00
2019-01-25T05:44:10.437Z,37.45
2019-01-25T05:44:44.092Z,39.25
2019-01-25T05:45:18.119Z,39.90
2019-01-25T05:45:51.757Z,37.60
2019-01-25T05:46:25.377Z,37.75
2019-01-25T05:46:59.056Z,39.13
2019-01-25T05:47:32.659Z,40.43
2019-01-25T05:48:06.230Z,39.27
2019-01-25T05:48:39.758Z,38.35
2019-01-25T05:49:13.475Z,37.05
2019-01-25T05:49:46.980Z,40.35
2019-01-25T05:50:20.610Z,39.90
2019-01-25T05:50:55.629Z,40.15
2019-01-25T05:51:33.535Z,39.80
2019-01-25T05:52:05.368Z,39.67
2019-01-25T05:52:39.020Z,39.33
2019-01-25T05:53:12.507Z,39.00
2019-01-25T05:53:52.882Z,41.45
2019-01-25T05:54:26.556Z,38.55
2019-01-25T05:55:00.098Z,38.63
2019-01-25T05:55:33.997Z,39.30
2019-01-25T05:56:07.593Z,37.05
2019-01-25T05:56:44.334Z,40.45
2019-01-25T05:57:17.859Z,37.38
2019-01-25T05:57:54.774Z,36.20
2019-01-25T05:58:28.323Z,38.02
2019-01-25T05:59:01.841Z,39.35
2019-01-25T05:59:35.325Z,37.60
2019-01-25T06:00:10.900Z,37.55
2019-01-25T06:00:44.533Z,39.27
2019-01-25T06:01:18.230Z,39.70
2019-01-25T06:01:51.833Z,39.63
2019-01-25T06:02:25.512Z,38.58
2019-01-25T06:03:05.489Z,38.63
2019-01-25T06:03:39.008Z,35.43
2019-01-25T06:04:12.660Z,39.55
2019-01-25T06:04:46.201Z,36.95
2019-01-25T06:05:19.787Z,40.35
2019-01-25T06:05:59.244Z,37.78
2019-01-25T06:06:32.833Z,36.58
2019-01-25T06:07:06.463Z,40.33
2019-01-25T06:07:40.051Z,36.20
2019-01-25T06:08:30.278Z,37.33
2019-01-25T06:09:05.330Z,36.85
2019-01-25T06:09:38.911Z,36.83
2019-01-25T06:10:12.496Z,36.38
2019-01-25T06:10:46.007Z,39.78
2019-01-25T06:11:19.480Z,38.92
2019-01-25T06:11:52.969Z,37.90
2019-01-25T06:12:26.500Z,38.60
2019-01-25T06:12:59.985Z,37.30
2019-01-25T06:13:33.525Z,37.17
2019-01-25T06:14:07.993Z,40.95
2019-01-25T06:14:41.478Z,37.55
2019-01-25T06:15:15.014Z,39.00
2019-01-25T06:15:48.530Z,39.23
2019-01-25T06:16:22.104Z,38.05
2019-01-25T06:16:55.606Z,36.70
2019-01-25T06:17:29.264Z,38.35
2019-01-25T06:18:03.307Z,37.13
2019-01-25T06:18:36.832Z,37.05
2019-01-25T06:19:10.317Z,38.60
2019-01-25T06:19:43.811Z,38.35
2019-01-25T06:20:17.397Z,39.20
2019-01-25T06:20:54.579Z,36.98
2019-01-25T06:21:28.145Z,39.23
2019-01-25T06:22:01.768Z,36.83
2019-01-25T06:22:35.377Z,38.28
2019-01-25T06:23:08.944Z,37.58
2019-01-25T06:23:42.454Z,38.48
2019-01-25T06:24:15.972Z,36.30
2019-01-25T06:24:49.486Z,35.70
2019-01-25T06:25:23.002Z,37.13
2019-01-25T06:25:57.389Z,37.98
2019-01-25T06:26:30.945Z,35.20
2019-01-25T06:27:04.670Z,39.38
2019-01-25T06:27:38.371Z,38.00
2019-01-25T06:28:11.932Z,37.95
2019-01-25T06:28:50.261Z,38.33
2019-01-25T06:29:23.789Z,39.58
2019-01-25T06:29:57.427Z,40.03
2019-01-25T06:30:31.158Z,37.55
2019-01-25T06:31:05.152Z,37.40
2019-01-25T06:31:39.215Z,38.88
2019-01-25T06:32:13.108Z,37.78
2019-01-25T06:32:46.700Z,37.10
2019-01-25T06:33:20.247Z,37.30
2019-01-25T06:33:53.837Z,37.95
2019-01-25T06:34:27.446Z,39.58
2019-01-25T06:35:01.276Z,38.50
2019-01-25T06:35:34.811Z,41.28
2019-01-25T06:36:08.563Z,38.92
2019-01-25T06:36:42.105Z,38.75
2019-01-25T06:37:15.638Z,39.55
2019-01-25T06:37:49.417Z,37.48
2019-01-25T06:38:23.198Z,39.45
2019-01-25T06:38:56.799Z,38.33
2019-01-25T06:39:30.604Z,40.33
2019-01-25T06:40:05.009Z,38.85
2019-01-25T06:40:38.583Z,39.05
2019-01-25T06:41:12.163Z,39.35
2019-01-25T06:41:45.699Z,39.60
2019-01-25T06:42:19.185Z,36.10
2019-01-25T06:42:52.693Z,39.20
2019-01-25T06:43:26.326Z,40.58
2019-01-25T06:43:59.933Z,38.13
2019-01-25T06:44:33.550Z,40.58
2019-01-25T06:45:07.197Z,40.08
2019-01-25T06:45:40.729Z,38.23
2019-01-25T06:46:14.253Z,40.43
2019-01-25T06:46:47.940Z,39.70
2019-01-25T06:47:21.474Z,39.63
2019-01-25T06:47:55.048Z,38.92
2019-01-25T06:48:28.694Z,39.05
2019-01-25T06:49:02.226Z,36.35
2019-01-25T06:49:35.808Z,37.75
2019-01-25T06:50:09.320Z,40.05
2019-01-25T06:50:42.826Z,36.53
2019-01-25T06:51:16.401Z,36.08
2019-01-25T06:51:49.904Z,37.93
2019-01-25T06:52:23.521Z,35.65
2019-01-25T06:52:57.026Z,39.33
2019-01-25T06:53:30.545Z,39.27
2019-01-25T06:54:04.102Z,40.33
2019-01-25T06:54:37.679Z,38.30
2019-01-25T06:55:11.175Z,38.83
2019-01-25T06:55:44.696Z,38.85
2019-01-25T06:56:18.229Z,40.10
2019-01-25T06:56:51.850Z,39.42
2019-01-25T06:57:47.595Z,41.08
2019-01-25T06:58:49.139Z,36.75
2019-01-25T06:59:33.253Z,36.40
2019-01-25T07:00:07.785Z,35.60
2019-01-25T07:00:45.617Z,37.98
2019-01-25T07:01:23.781Z,37.30
2019-01-25T07:02:16.460Z,36.68
2019-01-25T07:02:49.957Z,36.08
2019-01-25T07:03:23.608Z,34.78
2019-01-25T07:03:57.183Z,36.60
2019-01-25T07:04:30.717Z,38.80
2019-01-25T07:05:04.334Z,36.83
2019-01-25T07:05:37.820Z,38.28
2019-01-25T07:06:14.438Z,37.65
2019-01-25T07:06:47.939Z,35.65
2019-01-25T07:07:26.002Z,36.20
2019-01-25T07:07:59.400Z,38.08
2019-01-25T07:08:32.923Z,35.50
2019-01-25T07:09:10.172Z,36.85
2019-01-25T07:09:43.598Z,38.40
2019-01-25T07:10:17.803Z,39.05
2019-01-25T07:10:51.364Z,35.90
2019-01-25T07:11:24.892Z,37.10
2019-01-25T07:11:58.491Z,36.05
2019-01-25T07:12:32.008Z,36.30
2019-01-25T07:13:05.599Z,35.28
2019-01-25T07:13:39.076Z,38.28
2019-01-25T07:14:12.591Z,34.27
2019-01-25T07:14:46.072Z,34.45
2019-01-25T07:15:22.221Z,33.48
2019-01-25T07:15:55.711Z,34.88
2019-01-25T07:16:29.249Z,33.18
2019-01-25T07:17:02.815Z,32.58
2019-01-25T07:17:36.314Z,32.98
2019-01-25T07:18:09.824Z,33.78
2019-01-25T07:18:43.344Z,33.23
2019-01-25T07:19:16.858Z,32.63
2019-01-25T07:19:50.490Z,33.13
2019-01-25T07:20:23.993Z,34.00